Monatstabelle

Bitte in den Auwahlmenüs den gewünschte Zeiraum wählen und die Schaltfläche "Anfrage absenden" betätigen. Beginn der Aufzeichnung ist 2007 - Dezember. Vor diesem Zeitraum sind keine Daten verfügbar.

2017 - September

 

Datum Temperatur (°C) Luftdruck (hPa) Luftfeuchte (%) Regen
(l/m²)
Wind (km/h)
avg: min: max: avg: min: max: avg: min: max: avg: max:
01.09.2017 17,1 13,7 24,9 1013,2 1010,6 1014,0 85 61 89 10,2 2,4 14,5
02.09.2017 14,3 11,8 19,2 1012,7 1011,4 1015,0 75 63 89 0,0 3,3 12,4
03.09.2017 12,9 10,1 16,3 1011,5 1009,9 1012,4 77 65 90 6,9 5,9 15,0
04.09.2017 13,4 8,2 21,7 1015,8 1012,3 1017,7 69 42 90 0,0 1,4 8,7
05.09.2017 15,9 8,4 24,0 1017,6 1015,9 1019,7 66 39 89 0,0 3,0 11,7
06.09.2017 16,7 11,8 23,7 1013,5 1012,1 1016,7 82 61 90 4,4 1,3 4,5
07.09.2017 15,2 11,0 20,9 1014,9 1013,1 1015,6 68 46 85 0,0 4,0 13,2
08.09.2017 16,2 8,3 23,3 1011,1 1007,8 1015,1 67 41 89 0,0 9,0 13,0
09.09.2017 18,4 9,2 25,1 1002,5 1000,7 1007,8 67 50 89 0,0 4,1 14,5
10.09.2017 16,6 12,2 21,3 1005,5 1001,9 1007,1 79 67 88 0,1 0,6 7,6
11.09.2017 15,2 11,5 19,7 1003,8 1001,7 1006,3 86 80 92 6,2 1,8 8,9
12.09.2017 12,8 11,8 17,1 1009,2 1004,4 1012,7 81 60 90 0,7 1,3 10,9
13.09.2017 16,2 8,3 23,5 1012,2 1010,5 1015,2 64 41 87 0,0 3,8 11,6
14.09.2017 17,1 10,3 29,3 1008,0 1003,1 1012,1 58 43 87 0,1 6,9 13,7
15.09.2017 14,0 10,0 20,9 1013,3 1011,2 1016,9 62 42 70 0,0 4,8 11,9
16.09.2017 14,3 11,3 19,1 1009,9 1007,8 1011,5 80 70 89 10,1 2,8 15,0
17.09.2017 10,5 7,8 13,5 1011,1 1008,8 1012,8 89 79 91 13,2 0,5 10,5
18.09.2017 11,0 5,7 15,7 1014,9 1012,6 1016,1 85 74 94 0,0 0,6 1,9
19.09.2017 9,9 9,2 11,0 1012,0 1010,8 1014,6 91 89 92 38,7 0,8 6,9
20.09.2017 10,4 8,7 11,7 1014,4 1011,0 1015,8 84 77 92 7,0 6,3 13,0
21.09.2017 11,8 9,2 14,5 1016,0 1015,1 1016,8 73 64 83 0,0 3,8 13,7
22.09.2017 11,4 8,1 18,0 1018,3 1016,3 1019,8 78 58 89 0,0 1,7 10,3
23.09.2017 13,5 8,9 20,0 1018,2 1017,1 1019,9 75 49 89 0,0 3,0 11,1
24.09.2017 12,6 9,7 18,8 1018,6 1017,1 1019,8 81 61 90 0,0 0,0 4,5
25.09.2017 12,6 9,4 19,3 1020,1 1018,0 1020,7 79 59 91 0,0 1,9 8,2
26.09.2017 14,3 10,1 21,5 1021,8 1020,2 1022,6 81 59 89 0,0 0,3 10,8
27.09.2017 14,0 8,8 19,7 1023,2 1021,9 1024,4 85 72 93 0,0 0,4 7,4
28.09.2017 16,5 13,9 22,1 1024,7 1023,3 1026,1 64 47 84 0,0 4,0 11,4
29.09.2017 13,8 7,2 21,3 1022,8 1021,6 1025,1 66 46 89 0,0 6,0 10,0
30.09.2017 13,4 11,4 19,3 1018,9 1018,0 1021,6 57 43 66 0,0 10,8 17,5
avg. 14,1 1014,3 75   ---
  Summe Regen: 97,5  
 
Min-Datum 18.09.2017 09.09.2017 05.09.2017 --- ---
Min-Zeit 06:50 19:18 14:24 --- ---
Minimum 5,7 1000,7 39 --- ---
 

Max-Datum

14.09.2017 28.09.2017 18.09.2017 19.09.2017 30.09.2017
Max-Zeit 13:54 10:58 08:32 20:54 10:36
Maximum 29,3 1026,1 94 38,7 17,5
 

 

  Letztes Jahr
gleiches Monat
Eistage max < 0°C 0 0
Frosttage min < 0°C 0 0
Sommertage max >=25°C 2 16
Heiße Tage max >=30°C 0 3

 

<<< nach oben >>>